createdAt,value
2022-08-07T00:02:40.575Z,102200.50
2022-08-07T00:05:05.746Z,102196.28
2022-08-07T00:07:40.311Z,102200.16
2022-08-07T00:10:30.482Z,102196.44
2022-08-07T00:13:09.921Z,102197.22
2022-08-07T00:15:52.716Z,102194.34
2022-08-07T00:18:25.315Z,102201.13
2022-08-07T00:21:08.099Z,102207.28
2022-08-07T00:23:51.700Z,102213.59
2022-08-07T00:26:48.746Z,102206.63
2022-08-07T00:29:08.256Z,102203.41
2022-08-07T00:31:37.640Z,102201.16
2022-08-07T00:34:10.057Z,102207.94
2022-08-07T00:36:43.032Z,102202.59
2022-08-07T00:39:17.082Z,102206.50
2022-08-07T00:42:04.985Z,102199.88
2022-08-07T00:44:35.374Z,102198.72
2022-08-07T00:48:05.419Z,102192.09
2022-08-07T00:50:18.970Z,102200.66
2022-08-07T00:52:47.554Z,102200.50
2022-08-07T00:55:17.452Z,102199.53
2022-08-07T00:57:56.024Z,102201.47
2022-08-07T01:00:25.830Z,102196.44
2022-08-07T01:02:54.584Z,102204.19
2022-08-07T01:05:24.527Z,102204.84
2022-08-07T01:07:53.303Z,102200.31
2022-08-07T01:10:23.844Z,102200.84
2022-08-07T01:12:54.669Z,102202.91
2022-08-07T01:16:00.883Z,102198.19
2022-08-07T01:18:17.611Z,102205.16
2022-08-07T01:21:22.822Z,102197.84
2022-08-07T01:23:58.033Z,102201.19
2022-08-07T01:26:28.202Z,102193.78
2022-08-07T01:28:56.946Z,102203.78
2022-08-07T01:31:42.697Z,102191.19
2022-08-07T01:34:17.980Z,102197.94
2022-08-07T01:36:52.536Z,102189.31
2022-08-07T01:39:40.403Z,102192.16
2022-08-07T01:42:38.517Z,102198.63
2022-08-07T01:45:09.663Z,102196.50
2022-08-07T01:48:20.924Z,102192.13
2022-08-07T01:50:29.361Z,102195.00
2022-08-07T01:53:08.746Z,102185.97
2022-08-07T01:55:47.458Z,102202.00
2022-08-07T01:58:27.766Z,102196.81
2022-08-07T02:01:10.401Z,102184.47
2022-08-07T02:04:07.691Z,102188.34
2022-08-07T02:06:41.570Z,102187.75
2022-08-07T02:09:52.344Z,102191.50
2022-08-07T02:12:19.832Z,102197.50
2022-08-07T02:15:06.049Z,102190.22
2022-08-07T02:17:49.437Z,102197.75
2022-08-07T02:20:23.878Z,102193.03
2022-08-07T02:23:02.236Z,102185.22
2022-08-07T02:26:30.995Z,102192.13
2022-08-07T02:28:29.816Z,102186.28
2022-08-07T02:31:24.695Z,102199.00
2022-08-07T02:34:10.969Z,102196.13
2022-08-07T02:36:46.580Z,102194.09
2022-08-07T02:39:43.849Z,102192.44
2022-08-07T02:42:14.521Z,102190.00
2022-08-07T02:44:50.110Z,102188.25
2022-08-07T02:47:23.488Z,102190.94
2022-08-07T02:49:59.665Z,102184.03
2022-08-07T02:52:49.367Z,102195.28
2022-08-07T02:56:02.417Z,102187.50
2022-08-07T02:58:23.484Z,102183.75
2022-08-07T03:00:59.388Z,102182.25
2022-08-07T03:03:49.130Z,102179.69
2022-08-07T03:06:25.469Z,102184.16
2022-08-07T03:08:56.146Z,102186.94
2022-08-07T03:11:28.250Z,102186.78
2022-08-07T03:14:01.586Z,102188.03
2022-08-07T03:16:32.283Z,102191.63
2022-08-07T03:19:02.950Z,102193.94
2022-08-07T03:21:33.522Z,102194.69
2022-08-07T03:24:20.298Z,102193.25
2022-08-07T03:26:59.032Z,102186.63
2022-08-07T03:29:39.872Z,102195.69
2022-08-07T03:32:18.922Z,102196.63
2022-08-07T03:35:01.068Z,102188.59
2022-08-07T03:37:46.376Z,102194.09
2022-08-07T03:40:27.554Z,102187.50
2022-08-07T03:43:02.069Z,102198.06
2022-08-07T03:45:34.567Z,102194.88
2022-08-07T03:48:12.690Z,102191.88
2022-08-07T03:50:43.241Z,102193.59
2022-08-07T03:54:01.851Z,102202.72
2022-08-07T03:56:33.011Z,102201.50
2022-08-07T03:59:09.882Z,102204.66
2022-08-07T04:01:46.429Z,102200.66
2022-08-07T04:04:19.334Z,102203.03
2022-08-07T04:06:53.247Z,102207.69
2022-08-07T04:09:25.692Z,102204.84
2022-08-07T04:12:25.319Z,102200.66
2022-08-07T04:15:00.213Z,102202.84
2022-08-07T04:18:19.674Z,102201.75
2022-08-07T04:20:20.161Z,102203.16
2022-08-07T04:22:53.346Z,102204.47
2022-08-07T04:25:24.318Z,102203.16
2022-08-07T04:27:59.222Z,102199.66
2022-08-07T04:30:39.633Z,102210.38
2022-08-07T04:33:25.658Z,102203.44
2022-08-07T04:35:55.763Z,102209.13
2022-08-07T04:38:29.649Z,102211.56
2022-08-07T04:40:59.531Z,102210.84
2022-08-07T04:44:09.689Z,102218.78
2022-08-07T04:47:07.895Z,102207.88
2022-08-07T04:50:16.334Z,102220.97
2022-08-07T04:53:27.957Z,102219.50
2022-08-07T04:58:15.191Z,102221.03
2022-08-07T05:00:11.988Z,102227.94
2022-08-07T05:02:26.828Z,102226.06
2022-08-07T05:05:53.633Z,102222.22
2022-08-07T05:08:59.741Z,102225.97
2022-08-07T05:11:57.407Z,102226.47
2022-08-07T05:14:55.127Z,102224.34
2022-08-07T05:17:51.990Z,102222.66
2022-08-07T05:20:27.237Z,102228.34
2022-08-07T05:23:15.628Z,102233.19
2022-08-07T05:26:10.726Z,102232.03
2022-08-07T05:28:40.569Z,102227.50
2022-08-07T05:31:14.610Z,102236.50
2022-08-07T05:34:01.492Z,102233.25
2022-08-07T05:36:39.210Z,102224.06
2022-08-07T05:40:05.208Z,102231.19
2022-08-07T05:42:12.421Z,102231.38
2022-08-07T05:44:52.841Z,102235.25
2022-08-07T05:47:38.416Z,102241.72
2022-08-07T05:50:24.098Z,102235.25
2022-08-07T05:52:52.456Z,102237.22
2022-08-07T05:55:21.878Z,102232.34
2022-08-07T05:57:54.231Z,102237.22
2022-08-07T06:00:25.679Z,102239.78
2022-08-07T06:03:06.831Z,102245.63
2022-08-07T06:05:35.317Z,102246.88
2022-08-07T06:08:29.508Z,102233.91
2022-08-07T06:10:58.678Z,102255.63
2022-08-07T06:14:10.673Z,102249.94
2022-08-07T06:16:18.084Z,102242.94
2022-08-07T06:18:51.899Z,102243.25
2022-08-07T06:22:14.461Z,102245.34
2022-08-07T06:24:52.437Z,102241.56
2022-08-07T06:27:04.824Z,102237.28
2022-08-07T06:29:38.760Z,102240.00
2022-08-07T06:32:08.591Z,102245.91
2022-08-07T06:34:36.847Z,102245.03
2022-08-07T06:37:09.379Z,102241.16
2022-08-07T06:40:16.015Z,102236.56
2022-08-07T06:42:37.477Z,102238.22
2022-08-07T06:45:22.629Z,102249.88
2022-08-07T06:47:59.533Z,102248.13
2022-08-07T06:50:39.465Z,102243.25
2022-08-07T06:54:12.131Z,102251.06
2022-08-07T06:56:15.004Z,102244.25
2022-08-07T07:00:12.532Z,102248.41
2022-08-07T07:01:48.749Z,102255.19
2022-08-07T07:04:28.056Z,102242.28
2022-08-07T07:07:19.469Z,102241.59
2022-08-07T07:09:52.292Z,102247.72
2022-08-07T07:12:31.273Z,102242.13
2022-08-07T07:15:24.123Z,102242.91
2022-08-07T07:18:37.655Z,102244.56
2022-08-07T07:22:04.545Z,102244.41
2022-08-07T07:24:18.734Z,102241.75
2022-08-07T07:26:52.569Z,102246.38
2022-08-07T07:29:57.124Z,102237.41
2022-08-07T07:32:18.775Z,102241.50
2022-08-07T07:34:52.677Z,102240.97
2022-08-07T07:37:49.557Z,102240.69
2022-08-07T07:40:18.784Z,102244.44
2022-08-07T07:42:54.032Z,102229.53
2022-08-07T07:46:38.199Z,102232.06
2022-08-07T07:48:35.072Z,102225.69
2022-08-07T07:51:08.143Z,102226.69
2022-08-07T07:53:51.382Z,102218.41
2022-08-07T07:56:30.306Z,102216.13
2022-08-07T07:59:02.028Z,102224.34
2022-08-07T08:02:04.769Z,102208.25
2022-08-07T08:04:30.875Z,102213.38
2022-08-07T08:07:02.801Z,102218.44
2022-08-07T08:09:51.770Z,102206.19
2022-08-07T08:12:52.000Z,102201.16
2022-08-07T08:15:17.221Z,102201.63
2022-08-07T08:17:57.287Z,102206.81
2022-08-07T08:20:33.078Z,102202.38
2022-08-07T08:23:27.905Z,102198.91
2022-08-07T08:26:21.362Z,102196.19
2022-08-07T08:28:54.464Z,102193.19
2022-08-07T08:31:59.038Z,102196.84
2022-08-07T08:34:34.033Z,102189.16
2022-08-07T08:37:09.902Z,102195.19
2022-08-07T08:39:58.638Z,102184.63
2022-08-07T08:42:51.634Z,102193.53
2022-08-07T08:45:42.039Z,102192.63
2022-08-07T08:48:51.560Z,102190.06
2022-08-07T08:51:49.751Z,102178.97
2022-08-07T08:54:45.014Z,102186.81
2022-08-07T08:57:40.379Z,102187.56
2022-08-07T09:00:12.143Z,102179.38
2022-08-07T09:02:59.400Z,102187.34
2022-08-07T09:05:37.808Z,102179.81
2022-08-07T09:08:41.349Z,102173.78
2022-08-07T09:11:50.751Z,102171.69
2022-08-07T09:14:50.552Z,102176.66
2022-08-07T09:18:01.294Z,102181.91
2022-08-07T09:21:57.857Z,102177.03
2022-08-07T09:24:58.566Z,102170.13
2022-08-07T09:28:00.710Z,102169.91
2022-08-07T09:31:03.026Z,102163.13
2022-08-07T09:34:15.850Z,102159.25
2022-08-07T09:37:06.273Z,102155.03
2022-08-07T09:39:54.796Z,102151.06
2022-08-07T09:42:58.857Z,102152.44
2022-08-07T09:47:24.304Z,102146.28
2022-08-07T09:50:01.995Z,102152.03
2022-08-07T09:52:51.850Z,102147.81
2022-08-07T09:56:03.193Z,102136.91
2022-08-07T09:59:29.436Z,102137.34
2022-08-07T10:02:24.678Z,102137.44
2022-08-07T10:05:59.390Z,102134.31
2022-08-07T10:09:00.508Z,102133.56
2022-08-07T10:12:15.120Z,102127.22
2022-08-07T10:15:21.992Z,102126.41
2022-08-07T10:18:15.523Z,102128.94
2022-08-07T10:21:19.745Z,102118.84
2022-08-07T10:24:38.105Z,102116.72
2022-08-07T10:27:17.679Z,102107.16
2022-08-07T10:30:07.126Z,102106.97
2022-08-07T10:34:06.265Z,102100.03
2022-08-07T10:36:48.876Z,102103.88
2022-08-07T10:40:03.059Z,102088.38
2022-08-07T10:42:57.489Z,102086.50
2022-08-07T10:45:48.095Z,102077.50
2022-08-07T10:49:02.356Z,102081.22
2022-08-07T10:52:12.934Z,102075.28
2022-08-07T10:55:00.889Z,102083.25
2022-08-07T10:58:17.058Z,102077.63
2022-08-07T11:01:19.249Z,102077.78
2022-08-07T11:04:31.613Z,102062.53
2022-08-07T11:07:58.981Z,102061.22
2022-08-07T11:10:52.405Z,102058.81
2022-08-07T11:14:46.296Z,102057.63
2022-08-07T11:17:07.368Z,102055.09
2022-08-07T11:20:07.862Z,102049.53
2022-08-07T11:22:58.456Z,102053.56
2022-08-07T11:25:47.850Z,102044.09
2022-08-07T11:28:34.199Z,102041.34
2022-08-07T11:31:35.129Z,102039.84
2022-08-07T11:34:35.971Z,102034.84
2022-08-07T11:37:58.078Z,102026.66
2022-08-07T11:41:22.229Z,102026.69
2022-08-07T11:44:20.817Z,102024.81
2022-08-07T11:48:13.705Z,102024.03
2022-08-07T11:51:41.657Z,102026.13
2022-08-07T11:54:38.506Z,102016.88
2022-08-07T11:58:00.092Z,102019.28
2022-08-07T12:00:53.606Z,102006.50
2022-08-07T12:04:05.195Z,102005.06
2022-08-07T12:06:50.838Z,102002.31
2022-08-07T12:09:55.378Z,101999.81
2022-08-07T12:12:55.260Z,101992.94
2022-08-07T12:16:06.796Z,101994.59
2022-08-07T12:19:14.607Z,101991.88
2022-08-07T12:22:38.654Z,101990.06
2022-08-07T12:26:03.272Z,101986.31
2022-08-07T12:29:20.284Z,101972.94
2022-08-07T12:32:04.184Z,101967.34
2022-08-07T12:34:38.917Z,101979.56
2022-08-07T12:37:22.946Z,101980.03
2022-08-07T12:39:57.452Z,101979.91
2022-08-07T12:42:32.197Z,101969.78
2022-08-07T12:45:14.915Z,101974.59
2022-08-07T12:48:27.679Z,101971.34
2022-08-07T12:51:13.115Z,101963.53
2022-08-07T12:54:36.560Z,101959.56
2022-08-07T12:57:12.640Z,101964.75
2022-08-07T12:59:55.832Z,101954.38
2022-08-07T13:02:57.924Z,101947.13
2022-08-07T13:06:02.732Z,101957.56
2022-08-07T13:08:56.514Z,101955.59
2022-08-07T13:12:02.253Z,101952.63
2022-08-07T13:14:56.867Z,101945.63
2022-08-07T13:18:03.582Z,101940.72
2022-08-07T13:20:51.125Z,101941.78
2022-08-07T13:24:01.821Z,101937.03
2022-08-07T13:27:13.129Z,101935.13
2022-08-07T13:29:58.073Z,101936.72
2022-08-07T13:32:55.255Z,101926.41
2022-08-07T13:35:59.523Z,101926.06
2022-08-07T13:38:45.480Z,101924.22
2022-08-07T13:41:49.595Z,101918.47
2022-08-07T13:44:37.044Z,101926.44
2022-08-07T13:47:15.935Z,101913.69
2022-08-07T13:50:33.401Z,101916.56
2022-08-07T13:52:51.798Z,101906.81
2022-08-07T13:55:25.790Z,101902.84
2022-08-07T13:58:34.143Z,101899.06
2022-08-07T14:01:20.392Z,101904.00
2022-08-07T14:04:06.741Z,101902.16
2022-08-07T14:06:41.920Z,101892.47
2022-08-07T14:10:02.191Z,101890.50
2022-08-07T14:12:56.448Z,101894.19
2022-08-07T14:15:40.651Z,101888.53
2022-08-07T14:18:28.924Z,101886.69
2022-08-07T14:22:02.318Z,101884.69
2022-08-07T14:24:42.119Z,101881.41
2022-08-07T14:28:09.407Z,101893.31
2022-08-07T14:30:11.751Z,101872.91
2022-08-07T14:32:55.876Z,101873.50
2022-08-07T14:35:45.073Z,101873.38
2022-08-07T14:38:30.700Z,101872.56
2022-08-07T14:41:12.437Z,101870.84
2022-08-07T14:43:57.264Z,101873.69
2022-08-07T14:46:32.455Z,101863.44
2022-08-07T14:54:54.268Z,101865.41
2022-08-07T14:57:25.394Z,101864.66
2022-08-07T15:00:20.656Z,101866.09
2022-08-07T15:11:52.879Z,101863.81
2022-08-07T15:17:18.912Z,101855.25
2022-08-07T15:20:32.368Z,101844.75
2022-08-07T15:22:53.926Z,101847.94
2022-08-07T15:25:36.749Z,101842.16
2022-08-07T15:28:34.962Z,101836.03
2022-08-07T15:34:00.884Z,101831.34
2022-08-07T15:37:02.691Z,101829.16
2022-08-07T15:39:27.156Z,101835.97
2022-08-07T15:42:47.827Z,101835.09
2022-08-07T15:45:22.181Z,101823.16
2022-08-07T15:48:03.114Z,101819.38
2022-08-07T15:51:01.530Z,101832.06
2022-08-07T15:53:52.779Z,101824.88
2022-08-07T15:56:46.130Z,101821.88
2022-08-07T15:59:20.367Z,101836.53
2022-08-07T16:02:23.832Z,101816.09
2022-08-07T16:05:15.347Z,101817.03
2022-08-07T16:08:30.621Z,101817.38
2022-08-07T16:10:52.436Z,101812.56
2022-08-07T16:14:11.702Z,101815.81
2022-08-07T16:18:02.639Z,101808.56
2022-08-07T16:20:55.251Z,101811.38
2022-08-07T16:24:35.056Z,101810.75
2022-08-07T16:27:19.063Z,101815.19
2022-08-07T16:30:30.298Z,101814.78
2022-08-07T16:34:01.549Z,101810.34
2022-08-07T16:36:20.684Z,101810.84
2022-08-07T16:39:10.755Z,101809.03
2022-08-07T16:42:45.302Z,101803.69
2022-08-07T16:46:40.486Z,101808.69
2022-08-07T16:50:28.507Z,101796.56
2022-08-07T16:52:52.802Z,101799.75
2022-08-07T16:55:47.274Z,101804.22
2022-08-07T16:59:14.366Z,101812.59
2022-08-07T17:02:52.476Z,101806.03
2022-08-07T17:06:19.898Z,101800.59
2022-08-07T17:09:09.116Z,101803.56
2022-08-07T17:12:04.434Z,101801.00
2022-08-07T17:15:04.449Z,101808.00
2022-08-07T17:17:46.932Z,101802.41
2022-08-07T17:20:37.546Z,101801.78
2022-08-07T17:23:22.412Z,101808.09
2022-08-07T17:26:34.867Z,101807.47
2022-08-07T17:30:16.193Z,101813.16
2022-08-07T17:32:54.773Z,101813.63
2022-08-07T17:36:04.895Z,101808.75
2022-08-07T17:39:10.205Z,101819.06
2022-08-07T17:42:03.582Z,101815.53
2022-08-07T17:44:54.811Z,101805.25
2022-08-07T17:47:54.255Z,101809.19
2022-08-07T17:50:34.169Z,101814.75
2022-08-07T17:54:01.039Z,101820.66
2022-08-07T17:56:30.161Z,101818.00
2022-08-07T17:59:10.599Z,101813.19
2022-08-07T18:02:10.870Z,101808.03
2022-08-07T18:05:21.733Z,101811.16
2022-08-07T18:08:23.940Z,101815.63
2022-08-07T18:12:17.845Z,101809.59
2022-08-07T18:14:37.547Z,101814.44
2022-08-07T18:18:47.362Z,101810.00
2022-08-07T18:21:10.477Z,101803.72
2022-08-07T18:24:00.728Z,101809.59
2022-08-07T18:26:40.759Z,101810.09
2022-08-07T18:30:04.658Z,101810.44
2022-08-07T18:33:15.251Z,101815.19
2022-08-07T18:36:33.324Z,101818.44
2022-08-07T18:40:05.197Z,101816.81
2022-08-07T18:42:56.036Z,101819.44
2022-08-07T18:46:21.947Z,101821.53
2022-08-07T18:50:19.375Z,101824.78
2022-08-07T18:52:34.806Z,101824.78
2022-08-07T18:55:57.890Z,101829.94
2022-08-07T18:59:07.677Z,101836.28
2022-08-07T19:02:18.068Z,101832.22
2022-08-07T19:05:10.689Z,101831.13
2022-08-07T19:08:17.424Z,101836.91
2022-08-07T19:11:35.653Z,101835.28
2022-08-07T19:14:20.051Z,101842.16
2022-08-07T19:17:07.119Z,101844.81
2022-08-07T19:20:29.928Z,101842.66
2022-08-07T19:23:18.390Z,101853.16
2022-08-07T19:26:23.929Z,101846.88
2022-08-07T19:30:55.676Z,101853.84
2022-08-07T19:32:10.556Z,101857.09
2022-08-07T19:34:36.354Z,101860.00
2022-08-07T19:37:17.798Z,101858.63
2022-08-07T19:40:02.105Z,101860.81
2022-08-07T19:42:40.278Z,101864.69
2022-08-07T19:46:09.254Z,101854.94
2022-08-07T19:48:18.092Z,101869.72
2022-08-07T19:50:53.174Z,101860.94
2022-08-07T19:54:34.783Z,101862.91
2022-08-07T19:58:01.820Z,101873.75
2022-08-07T19:59:08.704Z,101878.13
2022-08-07T20:01:56.139Z,101878.94
2022-08-07T20:04:43.130Z,101882.03
2022-08-07T20:07:46.638Z,101881.91
2022-08-07T20:10:35.220Z,101881.84
2022-08-07T20:13:26.689Z,101870.63
2022-08-07T20:15:58.331Z,101881.88
2022-08-07T20:18:34.474Z,101877.00
2022-08-07T20:21:21.155Z,101876.03
2022-08-07T20:24:01.045Z,101879.56
2022-08-07T20:26:45.071Z,101878.44
2022-08-07T20:29:48.179Z,101887.22
2022-08-07T20:32:22.617Z,101892.63
2022-08-07T20:35:00.090Z,101886.94
2022-08-07T20:37:33.956Z,101886.59
2022-08-07T20:40:31.170Z,101885.44
2022-08-07T20:43:09.456Z,101889.28
2022-08-07T20:46:28.202Z,101889.13
2022-08-07T20:48:36.059Z,101882.28
2022-08-07T20:51:09.820Z,101891.19
2022-08-07T20:54:03.057Z,101891.69
2022-08-07T20:56:32.524Z,101901.94
2022-08-07T20:59:05.985Z,101898.22
2022-08-07T21:01:58.225Z,101898.44
2022-08-07T21:04:31.561Z,101899.19
2022-08-07T21:07:04.336Z,101899.44
2022-08-07T21:09:52.628Z,101895.97
2022-08-07T21:12:31.705Z,101897.78
2022-08-07T21:15:07.075Z,101906.13
2022-08-07T21:18:02.796Z,101899.63
2022-08-07T21:20:33.523Z,101905.44
2022-08-07T21:23:28.242Z,101905.44
2022-08-07T21:26:13.761Z,101899.44
2022-08-07T21:28:59.467Z,101902.25
2022-08-07T21:32:47.534Z,101905.09
2022-08-07T21:34:58.133Z,101908.91
2022-08-07T21:37:58.039Z,101907.06
2022-08-07T21:41:00.520Z,101906.97
2022-08-07T21:44:28.354Z,101905.03
2022-08-07T21:47:04.750Z,101904.78
2022-08-07T21:50:01.886Z,101895.75
2022-08-07T21:53:07.709Z,101901.94
2022-08-07T21:56:07.321Z,101902.50
2022-08-07T21:59:21.839Z,101897.13
2022-08-07T22:02:13.379Z,101910.13
2022-08-07T22:04:51.232Z,101906.56
2022-08-07T22:07:31.588Z,101908.78
2022-08-07T22:10:22.194Z,101906.59
2022-08-07T22:13:02.753Z,101902.66
2022-08-07T22:16:42.548Z,101905.50
2022-08-07T22:19:23.707Z,101904.44
2022-08-07T22:22:27.526Z,101904.91
2022-08-07T22:25:26.579Z,101909.78
2022-08-07T22:28:30.917Z,101909.22
2022-08-07T22:31:56.477Z,101907.69
2022-08-07T22:34:28.873Z,101910.03
2022-08-07T22:37:17.020Z,101906.91
2022-08-07T22:40:15.124Z,101906.88
2022-08-07T22:42:49.445Z,101905.69
2022-08-07T22:46:21.790Z,101895.28
2022-08-07T22:49:09.498Z,101899.13
2022-08-07T22:52:11.806Z,101905.16
2022-08-07T22:55:30.015Z,101910.84
2022-08-07T22:58:31.874Z,101903.53
2022-08-07T23:01:49.911Z,101907.97
2022-08-07T23:06:08.180Z,101905.78
2022-08-07T23:08:51.584Z,101911.81
2022-08-07T23:12:06.179Z,101911.47
2022-08-07T23:15:01.681Z,101914.00
2022-08-07T23:17:59.512Z,101912.59
2022-08-07T23:20:53.183Z,101921.63
2022-08-07T23:24:11.891Z,101919.09
2022-08-07T23:27:33.659Z,101918.22
2022-08-07T23:30:38.106Z,101918.84
2022-08-07T23:34:34.806Z,101927.44
2022-08-07T23:37:19.128Z,101925.28
2022-08-07T23:40:31.064Z,101917.97
2022-08-07T23:43:40.010Z,101914.84
2022-08-07T23:46:48.694Z,101916.81
2022-08-07T23:49:57.266Z,101919.94
2022-08-07T23:53:49.575Z,101920.50
2022-08-07T23:56:31.154Z,101921.31
